CheckWX is a tool to help pilots better visualize weather data.  It is not intended as a substitute for an official pre-flight weather briefing.

11:07:27 UTC

KBOI METAR
Boise Air Terminal / Gowen Field Airport
Boise, Idaho, USA
Current

14 mins ago

KBOI 171053Z 20003KT 10SM FEW007 BKN026 OVC100 11/09 A2996 RMK AO2 SLP128 T01060089
Observed
Sep-17 @ 10:53 UTC
Wind
  • 200° at 3 KTS
Visibility
10 SM
Flight Rules
MVFR
Cloud Levels
  • Few at 700' AGL
  • Broken at 2,600' AGL
  • Overcast at 10,000' AGL
Temperature
11°C / 52°F
Dewpoint
C / 48°F
Humidity
88%
Altimeter
29.96" Hg
Pressure
1014.52 hPa
Previous

29 mins ago

KBOI 171038Z 00000KT 10SM SCT007 SCT021 OVC027 11/09 A2996 RMK AO2 T01060094
Observed
Sep-17 @ 10:38 UTC
Visibility
10 SM
Flight Rules
MVFR
Cloud Levels
  • Scattered at 700' AGL
  • Scattered at 2,100' AGL
  • Overcast at 2,700' AGL
Temperature
11°C / 52°F
Dewpoint
C / 48°F
Humidity
88%
Altimeter
29.96" Hg
Pressure
1014.52 hPa
Previous

46 mins ago

KBOI 171021Z 00000KT 10SM BKN027 OVC060 11/09 A2995 RMK AO2 T01060089
Observed
Sep-17 @ 10:21 UTC
Visibility
10 SM
Flight Rules
MVFR
Cloud Levels
  • Broken at 2,700' AGL
  • Overcast at 6,000' AGL
Temperature
11°C / 52°F
Dewpoint
C / 48°F
Humidity
88%
Altimeter
29.95" Hg
Pressure
1014.22 hPa